createdAt,value
2019-02-07T00:01:22.617Z,101155.03
2019-02-07T00:03:52.835Z,101140.02
2019-02-07T00:06:23.092Z,101137.55
2019-02-07T00:08:53.665Z,101131.20
2019-02-07T00:11:23.659Z,101135.30
2019-02-07T00:13:53.661Z,101137.78
2019-02-07T00:16:24.149Z,101135.30
2019-02-07T00:18:54.207Z,101128.22
2019-02-07T00:21:24.206Z,101122.25
2019-02-07T00:23:54.501Z,101118.97
2019-02-07T00:26:24.509Z,101121.13
2019-02-07T00:28:54.473Z,101120.28
2019-02-07T00:31:25.027Z,101097.91
2019-02-07T00:33:54.999Z,101093.61
2019-02-07T00:36:25.015Z,101100.27
2019-02-07T00:38:55.160Z,101096.27
2019-02-07T00:41:25.175Z,101093.19
2019-02-07T00:43:55.577Z,101091.67
2019-02-07T00:46:25.649Z,101092.08
2019-02-07T00:48:55.669Z,101076.26
2019-02-07T00:51:25.680Z,101076.17
2019-02-07T00:53:55.673Z,101075.34
2019-02-07T00:56:25.657Z,101065.29
2019-02-07T00:58:55.703Z,101057.37
2019-02-07T01:01:25.685Z,101070.32
2019-02-07T01:03:55.721Z,101043.83
2019-02-07T01:06:25.885Z,101043.94
2019-02-07T01:08:55.911Z,101045.37
2019-02-07T01:11:26.773Z,101028.12
2019-02-07T01:13:56.843Z,101033.55
2019-02-07T01:16:27.095Z,101038.19
2019-02-07T01:18:57.065Z,101041.65
2019-02-07T01:21:27.419Z,101024.62
2019-02-07T01:23:57.651Z,101032.94
2019-02-07T01:26:28.038Z,101033.83
2019-02-07T01:28:58.135Z,101029.02
2019-02-07T01:31:28.213Z,101031.14
2019-02-07T01:33:58.299Z,101033.40
2019-02-07T01:36:29.979Z,101023.37
2019-02-07T01:39:00.435Z,101017.31
2019-02-07T01:41:30.599Z,101010.98
2019-02-07T01:44:00.631Z,100995.17
2019-02-07T01:46:30.678Z,101000.12
2019-02-07T01:49:00.769Z,100999.92
2019-02-07T01:51:30.827Z,101001.42
2019-02-07T01:54:01.371Z,100992.42
2019-02-07T01:56:31.431Z,100989.55
2019-02-07T01:59:01.487Z,100983.58
2019-02-07T02:01:31.575Z,100980.81
2019-02-07T02:04:02.120Z,100982.47
2019-02-07T02:06:32.206Z,100974.97
2019-02-07T02:09:02.269Z,100964.00
2019-02-07T02:11:32.323Z,100957.20
2019-02-07T02:14:02.366Z,100950.86
2019-02-07T02:16:32.363Z,100951.89
2019-02-07T02:19:02.440Z,100951.36
2019-02-07T02:21:32.912Z,100948.50
2019-02-07T02:24:03.080Z,100935.89
2019-02-07T02:26:33.243Z,100930.05
2019-02-07T02:29:03.402Z,100915.38
2019-02-07T02:31:33.532Z,100919.25
2019-02-07T02:34:03.609Z,100909.22
2019-02-07T02:36:33.796Z,100908.48
2019-02-07T02:39:06.311Z,100891.88
2019-02-07T02:41:36.319Z,100890.64
2019-02-07T02:44:06.496Z,100881.41
2019-02-07T02:46:36.509Z,100884.07
2019-02-07T02:49:06.588Z,100878.20
2019-02-07T02:51:36.600Z,100878.09
2019-02-07T02:54:06.668Z,100869.89
2019-02-07T02:56:36.674Z,100872.07
2019-02-07T02:59:06.671Z,100870.00
2019-02-07T03:01:45.964Z,100866.30
2019-02-07T03:04:40.966Z,100866.09
2019-02-07T03:07:28.791Z,100863.23
2019-02-07T03:10:24.662Z,100857.41
2019-02-07T03:13:31.744Z,100854.34
2019-02-07T03:16:11.079Z,100841.30
2019-02-07T03:18:53.100Z,100835.86
2019-02-07T03:21:34.029Z,100834.64
2019-02-07T03:24:18.326Z,100822.35
2019-02-07T03:27:01.449Z,100811.03
2019-02-07T03:29:53.966Z,100801.19
2019-02-07T03:32:38.341Z,100790.03
2019-02-07T03:35:26.619Z,100783.00
2019-02-07T03:38:14.020Z,100800.71
2019-02-07T03:41:02.676Z,100795.37
2019-02-07T03:43:54.404Z,100785.70
2019-02-07T03:46:42.180Z,100786.36
2019-02-07T03:49:23.704Z,100786.70
2019-02-07T03:52:15.772Z,100777.31
2019-02-07T03:55:07.476Z,100769.80
2019-02-07T03:58:14.661Z,100760.71
2019-02-07T04:01:03.115Z,100754.63
2019-02-07T04:04:01.422Z,100740.73
2019-02-07T04:06:56.258Z,100745.19
2019-02-07T04:09:47.946Z,100744.06
2019-02-07T04:12:39.992Z,100718.02
2019-02-07T04:15:18.075Z,100721.19
2019-02-07T04:18:10.129Z,100721.90
2019-02-07T04:21:17.540Z,100700.06
2019-02-07T04:24:12.735Z,100710.25
2019-02-07T04:27:08.052Z,100709.12
2019-02-07T04:29:59.805Z,100701.90
2019-02-07T04:33:02.393Z,100710.83
2019-02-07T04:35:54.511Z,100712.27
2019-02-07T04:38:42.517Z,100696.28
2019-02-07T04:41:40.822Z,100703.63
2019-02-07T04:44:38.936Z,100687.05
2019-02-07T04:47:27.927Z,100674.20
2019-02-07T04:50:15.498Z,100670.02
2019-02-07T04:52:52.931Z,100674.66
2019-02-07T04:55:41.112Z,100665.84
2019-02-07T04:58:39.376Z,100671.89
2019-02-07T05:01:27.227Z,100662.87
2019-02-07T05:04:25.164Z,100657.14
2019-02-07T05:07:15.704Z,100658.70
2019-02-07T05:10:03.167Z,100658.59
2019-02-07T05:12:50.857Z,100661.86
2019-02-07T05:15:39.785Z,100643.45
2019-02-07T05:18:37.722Z,100637.88
2019-02-07T05:21:27.021Z,100631.27
2019-02-07T05:24:34.167Z,100628.80
2019-02-07T05:27:19.634Z,100627.89
2019-02-07T05:30:11.829Z,100630.46
2019-02-07T05:33:03.797Z,100630.07
2019-02-07T05:35:51.466Z,100619.01
2019-02-07T05:38:40.411Z,100613.14
2019-02-07T05:41:19.991Z,100612.36
2019-02-07T05:44:07.999Z,100598.94
2019-02-07T05:47:15.148Z,100594.55
2019-02-07T05:50:16.243Z,100588.12
2019-02-07T05:53:07.837Z,100579.17
2019-02-07T05:55:56.964Z,100575.08
2019-02-07T05:58:45.897Z,100566.48
2019-02-07T06:01:30.439Z,100565.34
2019-02-07T06:04:18.227Z,100559.52
2019-02-07T06:07:16.361Z,100551.44
2019-02-07T06:10:10.849Z,100562.59
2019-02-07T06:13:07.287Z,100565.37
2019-02-07T06:15:57.013Z,100551.33
2019-02-07T06:18:55.528Z,100548.91
2019-02-07T06:21:43.435Z,100533.20
2019-02-07T06:24:38.228Z,100537.92
2019-02-07T06:27:25.828Z,100531.27
2019-02-07T06:30:06.689Z,100526.27
2019-02-07T06:32:54.331Z,100525.92
2019-02-07T06:35:43.369Z,100503.91
2019-02-07T06:38:31.339Z,100510.48
2019-02-07T06:41:23.095Z,100491.00
2019-02-07T06:44:10.609Z,100492.30
2019-02-07T06:47:13.498Z,100485.09
2019-02-07T06:50:11.222Z,100471.72
2019-02-07T06:53:00.173Z,100480.53
2019-02-07T06:56:04.207Z,100482.49
2019-02-07T06:58:51.799Z,100480.77
2019-02-07T07:01:40.747Z,100475.44
2019-02-07T07:04:29.677Z,100466.66
2019-02-07T07:07:24.708Z,100460.91
2019-02-07T07:10:29.120Z,100466.83
2019-02-07T07:13:20.858Z,100458.02
2019-02-07T07:16:05.452Z,100442.88
2019-02-07T07:18:53.436Z,100446.56
2019-02-07T07:21:54.575Z,100446.67
2019-02-07T07:24:55.694Z,100439.84
2019-02-07T07:27:46.445Z,100431.44
2019-02-07T07:30:41.424Z,100424.42
2019-02-07T07:33:38.717Z,100425.66
2019-02-07T07:36:30.662Z,100419.19
2019-02-07T07:39:32.064Z,100424.25
2019-02-07T07:42:20.987Z,100419.09
2019-02-07T07:45:08.971Z,100404.95
2019-02-07T07:48:00.978Z,100410.25
2019-02-07T07:51:08.231Z,100404.58
2019-02-07T07:54:09.467Z,100400.20
2019-02-07T07:57:07.494Z,100389.63
2019-02-07T07:59:55.355Z,100385.55
2019-02-07T08:02:43.298Z,100379.43
2019-02-07T08:05:35.965Z,100374.66
2019-02-07T08:08:29.213Z,100377.15
2019-02-07T08:11:19.540Z,100375.47
2019-02-07T08:14:17.334Z,100376.61
2019-02-07T08:17:24.636Z,100374.78
2019-02-07T08:20:16.123Z,100374.04
2019-02-07T08:23:07.721Z,100369.66
2019-02-07T08:26:05.524Z,100371.91
2019-02-07T08:29:06.781Z,100364.80
2019-02-07T08:31:50.811Z,100357.31
2019-02-07T08:34:39.766Z,100365.84
2019-02-07T08:37:34.962Z,100362.67
2019-02-07T08:40:38.008Z,100360.27
2019-02-07T08:43:33.218Z,100354.11
2019-02-07T08:46:21.353Z,100350.54
2019-02-07T08:49:08.804Z,100348.16
2019-02-07T08:51:57.760Z,100336.84
2019-02-07T08:54:46.702Z,100330.77
2019-02-07T08:57:38.564Z,100335.27
2019-02-07T09:00:25.120Z,100331.85
2019-02-07T09:03:14.078Z,100330.93
2019-02-07T09:06:13.076Z,100327.69
2019-02-07T09:08:58.045Z,100319.98
2019-02-07T09:11:47.376Z,100317.94
2019-02-07T09:14:42.138Z,100310.95
2019-02-07T09:17:36.980Z,100305.13
2019-02-07T09:20:36.489Z,100298.78
2019-02-07T09:23:24.356Z,100296.95
2019-02-07T09:26:12.324Z,100299.08
2019-02-07T09:29:04.058Z,100292.50
2019-02-07T09:31:58.938Z,100296.28
2019-02-07T09:34:40.214Z,100287.38
2019-02-07T09:37:28.217Z,100290.58
2019-02-07T09:40:17.458Z,100285.99
2019-02-07T09:43:10.892Z,100285.12
2019-02-07T09:46:00.364Z,100284.34
2019-02-07T09:48:58.698Z,100279.55
2019-02-07T09:51:47.850Z,100277.80
2019-02-07T09:54:35.530Z,100282.23
2019-02-07T09:57:27.263Z,100283.72
2019-02-07T10:00:20.734Z,100283.29
2019-02-07T10:03:09.504Z,100288.81
2019-02-07T10:05:57.453Z,100280.23
2019-02-07T10:08:40.569Z,100282.55
2019-02-07T10:11:32.295Z,100275.95
2019-02-07T10:14:36.952Z,100287.58
2019-02-07T10:17:31.624Z,100276.90
2019-02-07T10:20:26.586Z,100275.72
2019-02-07T10:23:16.893Z,100275.66
2019-02-07T10:26:11.915Z,100282.23
2019-02-07T10:29:00.853Z,100270.39
2019-02-07T10:31:48.858Z,100277.20
2019-02-07T10:34:36.564Z,100273.69
2019-02-07T10:37:19.518Z,100268.19
2019-02-07T10:40:11.608Z,100260.66
2019-02-07T10:42:59.544Z,100261.23
2019-02-07T10:45:51.596Z,100258.57
2019-02-07T10:48:44.563Z,100256.20
2019-02-07T10:51:30.434Z,100256.77
2019-02-07T10:54:18.297Z,100255.38
2019-02-07T10:56:58.344Z,100246.03
2019-02-07T10:59:56.427Z,100242.72
2019-02-07T11:02:41.740Z,100236.63
2019-02-07T11:05:43.509Z,100234.38
2019-02-07T11:08:31.313Z,100237.94
2019-02-07T11:11:20.180Z,100233.38
2019-02-07T11:14:09.432Z,100231.41
2019-02-07T11:16:57.085Z,100232.37
2019-02-07T11:19:44.685Z,100237.02
2019-02-07T11:22:42.883Z,100222.27
2019-02-07T11:25:30.804Z,100224.24
2019-02-07T11:28:35.240Z,100215.59
2019-02-07T11:31:30.638Z,100212.48
2019-02-07T11:34:19.595Z,100212.70
2019-02-07T11:37:07.412Z,100222.55
2019-02-07T11:39:51.930Z,100221.00
2019-02-07T11:42:52.929Z,100216.80
2019-02-07T11:45:47.700Z,100218.97
2019-02-07T11:48:35.192Z,100209.13
2019-02-07T11:51:13.286Z,100198.12
2019-02-07T11:54:01.055Z,100205.31
2019-02-07T11:56:59.458Z,100197.02
2019-02-07T11:59:47.061Z,100195.73
2019-02-07T12:02:48.321Z,100209.69
2019-02-07T12:05:39.173Z,100195.19
2019-02-07T12:08:28.135Z,100195.70
2019-02-07T12:11:13.887Z,100190.83
2019-02-07T12:13:50.728Z,100190.23
2019-02-07T12:16:40.379Z,100188.51
2019-02-07T12:19:28.253Z,100191.97
2019-02-07T12:22:26.306Z,100184.52
2019-02-07T12:25:21.029Z,100190.65
2019-02-07T12:28:16.126Z,100171.55
2019-02-07T12:31:05.232Z,100180.28
2019-02-07T12:33:49.138Z,100164.10
2019-02-07T12:36:28.009Z,100160.47
2019-02-07T12:39:05.846Z,100162.82
2019-02-07T12:42:07.103Z,100167.77
2019-02-07T12:44:56.800Z,100164.16
2019-02-07T12:47:45.769Z,100166.31
2019-02-07T12:50:33.747Z,100170.44
2019-02-07T12:53:30.115Z,100158.92
2019-02-07T12:56:22.086Z,100164.87
2019-02-07T12:59:03.724Z,100158.66
2019-02-07T13:02:08.767Z,100157.33
2019-02-07T13:05:09.667Z,100160.23
2019-02-07T13:08:01.849Z,100159.05
2019-02-07T13:10:50.832Z,100153.47
2019-02-07T13:13:40.175Z,100140.92
2019-02-07T13:16:37.992Z,100141.90
2019-02-07T13:19:26.481Z,100146.84
2019-02-07T13:22:15.269Z,100145.42
2019-02-07T13:25:16.801Z,100136.12
2019-02-07T13:28:11.810Z,100136.55
2019-02-07T13:30:59.780Z,100138.73
2019-02-07T13:33:43.937Z,100132.32
2019-02-07T13:36:33.192Z,100133.33
2019-02-07T13:39:23.079Z,100147.50
2019-02-07T13:42:11.093Z,100146.25
2019-02-07T13:44:58.972Z,100148.84
2019-02-07T13:47:52.539Z,100136.90
2019-02-07T13:50:46.137Z,100139.86
2019-02-07T13:53:41.044Z,100142.06
2019-02-07T13:56:24.561Z,100150.22
2019-02-07T13:59:22.572Z,100146.63
2019-02-07T14:02:17.735Z,100149.59
2019-02-07T14:05:05.641Z,100149.98
2019-02-07T14:08:00.437Z,100150.08
2019-02-07T14:10:41.331Z,100150.36
2019-02-07T14:13:29.570Z,100156.81
2019-02-07T14:16:18.542Z,100158.81
2019-02-07T14:19:05.434Z,100160.16
2019-02-07T14:21:46.856Z,100156.77
2019-02-07T14:24:38.572Z,100160.01
2019-02-07T14:27:33.862Z,100162.03
2019-02-07T14:30:30.120Z,100165.45
2019-02-07T14:33:17.069Z,100166.98
2019-02-07T14:36:06.124Z,100163.20
2019-02-07T14:38:57.009Z,100166.23
2019-02-07T14:41:35.234Z,100169.14
2019-02-07T14:44:33.806Z,100169.42
2019-02-07T14:47:03.872Z,100180.28
2019-02-07T14:49:33.886Z,100176.44
2019-02-07T14:52:03.898Z,100178.02
2019-02-07T14:54:33.982Z,100177.73
2019-02-07T14:57:04.000Z,100181.52
2019-02-07T14:59:34.037Z,100182.63
2019-02-07T15:02:04.053Z,100177.45
2019-02-07T15:04:34.928Z,100179.66
2019-02-07T15:07:05.062Z,100187.39
2019-02-07T15:09:35.056Z,100177.09
2019-02-07T15:12:05.181Z,100178.80
2019-02-07T15:14:35.208Z,100184.89
2019-02-07T15:17:05.732Z,100183.73
2019-02-07T15:19:36.034Z,100189.19
2019-02-07T15:22:06.188Z,100186.09
2019-02-07T15:24:36.274Z,100194.86
2019-02-07T15:27:06.308Z,100194.03
2019-02-07T15:29:36.326Z,100185.17
2019-02-07T15:32:06.358Z,100193.38
2019-02-07T15:34:36.375Z,100184.39
2019-02-07T15:37:06.528Z,100194.12
2019-02-07T15:39:36.526Z,100185.22
2019-02-07T15:42:06.526Z,100182.21
2019-02-07T15:44:36.554Z,100176.95
2019-02-07T15:47:08.947Z,100179.48
2019-02-07T15:49:39.043Z,100185.03
2019-02-07T15:52:09.396Z,100189.41
2019-02-07T15:54:39.430Z,100185.38
2019-02-07T15:57:09.488Z,100185.64
2019-02-07T15:59:54.527Z,100185.48
2019-02-07T16:02:28.379Z,100179.93
2019-02-07T16:04:58.530Z,100186.86
2019-02-07T16:07:28.571Z,100189.94
2019-02-07T16:09:58.626Z,100183.09
2019-02-07T16:12:28.817Z,100177.47
2019-02-07T16:14:58.817Z,100179.44
2019-02-07T16:17:28.871Z,100178.99
2019-02-07T16:19:58.955Z,100183.11
2019-02-07T16:22:28.942Z,100182.72
2019-02-07T16:24:59.022Z,100184.33
2019-02-07T16:27:28.960Z,100186.08
2019-02-07T16:29:59.000Z,100189.94
2019-02-07T16:32:28.974Z,100187.19
2019-02-07T16:34:59.007Z,100200.23
2019-02-07T16:37:29.109Z,100194.47
2019-02-07T16:39:59.506Z,100190.77
2019-02-07T16:42:29.588Z,100189.09
2019-02-07T16:44:59.776Z,100200.02
2019-02-07T16:47:29.836Z,100197.73
2019-02-07T16:49:59.876Z,100208.20
2019-02-07T16:52:29.935Z,100206.75
2019-02-07T16:54:59.926Z,100206.19
2019-02-07T16:57:29.949Z,100200.47
2019-02-07T16:59:59.941Z,100209.96
2019-02-07T17:02:29.988Z,100209.96
2019-02-07T17:04:59.973Z,100212.98
2019-02-07T17:07:30.127Z,100200.55
2019-02-07T17:10:00.327Z,100213.19
2019-02-07T17:12:30.387Z,100213.20
2019-02-07T17:15:00.379Z,100212.52
2019-02-07T17:17:30.415Z,100209.78
2019-02-07T17:20:00.463Z,100213.31
2019-02-07T17:22:30.911Z,100228.05
2019-02-07T17:25:02.261Z,100225.34
2019-02-07T17:27:32.325Z,100220.65
2019-02-07T17:30:03.441Z,100219.94
2019-02-07T17:32:33.457Z,100230.26
2019-02-07T17:35:03.550Z,100227.36
2019-02-07T17:37:33.975Z,100225.44
2019-02-07T17:40:04.970Z,100228.64
2019-02-07T17:42:35.047Z,100219.59
2019-02-07T17:45:05.736Z,100224.34
2019-02-07T17:47:35.784Z,100231.06
2019-02-07T17:50:10.334Z,100225.50
2019-02-07T17:52:40.365Z,100226.06
2019-02-07T17:55:13.533Z,100233.09
2019-02-07T17:57:43.549Z,100235.22
2019-02-07T18:00:22.793Z,100233.05
2019-02-07T18:02:52.839Z,100236.48
2019-02-07T18:05:22.932Z,100238.11
2019-02-07T18:07:52.985Z,100241.83
2019-02-07T18:10:22.973Z,100229.56
2019-02-07T18:12:53.041Z,100232.80
2019-02-07T18:15:23.526Z,100236.02
2019-02-07T18:17:53.549Z,100234.59
2019-02-07T18:20:23.549Z,100230.52
2019-02-07T18:22:53.570Z,100240.67
2019-02-07T18:25:23.551Z,100240.31
2019-02-07T18:27:53.566Z,100235.70
2019-02-07T18:30:23.979Z,100239.11
2019-02-07T18:32:53.999Z,100238.09
2019-02-07T18:35:24.359Z,100235.04
2019-02-07T18:37:54.384Z,100234.81
2019-02-07T18:40:25.629Z,100233.03
2019-02-07T18:42:55.844Z,100233.52
2019-02-07T18:45:25.938Z,100236.34
2019-02-07T18:47:55.999Z,100238.28
2019-02-07T18:50:28.670Z,100236.43
2019-02-07T18:52:58.685Z,100234.52
2019-02-07T18:55:28.809Z,100226.45
2019-02-07T18:57:59.165Z,100232.45
2019-02-07T19:00:33.070Z,100232.52
2019-02-07T19:03:03.071Z,100239.66
2019-02-07T19:05:33.223Z,100236.72
2019-02-07T19:08:03.323Z,100235.26
2019-02-07T19:10:33.345Z,100233.08
2019-02-07T19:13:03.831Z,100240.87
2019-02-07T19:15:42.626Z,100242.08
2019-02-07T19:18:12.719Z,100238.23
2019-02-07T19:20:42.736Z,100244.81
2019-02-07T19:23:12.751Z,100239.57
2019-02-07T19:25:43.190Z,100237.11
2019-02-07T19:28:13.276Z,100241.89
2019-02-07T19:30:43.560Z,100241.89
2019-02-07T19:33:13.565Z,100249.45
2019-02-07T19:35:43.596Z,100243.22
2019-02-07T19:38:13.669Z,100248.48
2019-02-07T19:40:44.170Z,100246.86
2019-02-07T19:43:14.208Z,100256.48
2019-02-07T19:45:44.248Z,100253.02
2019-02-07T19:48:14.365Z,100254.14
2019-02-07T19:50:44.381Z,100263.62
2019-02-07T19:53:14.376Z,100264.05
2019-02-07T19:55:44.432Z,100261.67
2019-02-07T19:58:14.520Z,100259.98
2019-02-07T20:00:44.903Z,100262.18
2019-02-07T20:03:14.978Z,100262.11
2019-02-07T20:05:45.123Z,100264.05
2019-02-07T20:08:15.266Z,100267.91
2019-02-07T20:10:45.275Z,100263.44
2019-02-07T20:13:15.341Z,100258.80
2019-02-07T20:15:45.471Z,100261.38
2019-02-07T20:18:15.497Z,100269.17
2019-02-07T20:20:45.762Z,100265.39
2019-02-07T20:23:15.795Z,100259.22
2019-02-07T20:25:45.850Z,100267.30
2019-02-07T20:28:15.889Z,100279.02
2019-02-07T20:30:45.905Z,100276.20
2019-02-07T20:33:15.938Z,100280.34
2019-02-07T20:35:46.098Z,100282.58
2019-02-07T20:38:16.137Z,100287.45
2019-02-07T20:40:46.444Z,100285.25
2019-02-07T20:43:16.491Z,100289.25
2019-02-07T20:45:46.497Z,100292.50
2019-02-07T20:48:16.540Z,100291.23
2019-02-07T20:50:46.539Z,100287.59
2019-02-07T20:53:17.745Z,100288.28
2019-02-07T20:55:48.046Z,100292.78
2019-02-07T20:58:18.090Z,100294.66
2019-02-07T21:00:48.189Z,100302.55
2019-02-07T21:03:18.270Z,100311.53
2019-02-07T21:05:48.312Z,100318.34
2019-02-07T21:08:20.813Z,100316.94
2019-02-07T21:10:51.201Z,100328.19
2019-02-07T21:13:21.252Z,100332.88
2019-02-07T21:15:51.315Z,100340.48
2019-02-07T21:18:21.392Z,100347.08
2019-02-07T21:20:51.414Z,100362.73
2019-02-07T21:23:21.464Z,100375.55
2019-02-07T21:25:52.837Z,100374.75
2019-02-07T21:28:22.857Z,100385.14
2019-02-07T21:31:01.064Z,100390.77
2019-02-07T21:33:31.186Z,100381.86
2019-02-07T21:36:03.640Z,100386.98
2019-02-07T21:38:33.929Z,100378.75
2019-02-07T21:41:04.298Z,100386.98
2019-02-07T21:43:34.713Z,100388.39
2019-02-07T21:46:04.749Z,100394.27
2019-02-07T21:48:34.739Z,100401.81
2019-02-07T21:51:05.122Z,100403.31
2019-02-07T21:53:35.235Z,100413.09
2019-02-07T21:56:05.391Z,100417.45
2019-02-07T21:58:35.420Z,100428.27
2019-02-07T22:01:05.810Z,100438.82
2019-02-07T22:03:35.838Z,100439.41
2019-02-07T22:06:05.849Z,100441.86
2019-02-07T22:08:36.168Z,100436.75
2019-02-07T22:11:06.162Z,100441.92
2019-02-07T22:13:36.184Z,100444.53
2019-02-07T22:16:06.243Z,100451.58
2019-02-07T22:18:36.615Z,100453.56
2019-02-07T22:21:09.622Z,100455.66
2019-02-07T22:23:39.654Z,100456.83
2019-02-07T22:26:09.670Z,100464.31
2019-02-07T22:28:39.737Z,100465.64
2019-02-07T22:31:09.789Z,100474.13
2019-02-07T22:33:39.818Z,100471.44
2019-02-07T22:36:09.837Z,100474.41
2019-02-07T22:38:39.921Z,100478.55
2019-02-07T22:41:09.987Z,100469.72
2019-02-07T22:43:40.030Z,100478.34
2019-02-07T22:46:10.042Z,100473.38
2019-02-07T22:48:40.152Z,100483.81
2019-02-07T22:51:10.622Z,100486.94
2019-02-07T22:53:40.648Z,100484.19
2019-02-07T22:56:11.028Z,100488.95
2019-02-07T22:58:41.155Z,100482.04
2019-02-07T23:01:33.185Z,100488.11
2019-02-07T23:04:06.714Z,100486.04
2019-02-07T23:06:36.740Z,100496.79
2019-02-07T23:09:11.001Z,100495.32
2019-02-07T23:11:41.161Z,100497.38
2019-02-07T23:14:11.480Z,100499.98
2019-02-07T23:16:41.517Z,100507.34
2019-02-07T23:19:11.531Z,100503.46
2019-02-07T23:21:41.505Z,100509.42
2019-02-07T23:24:11.611Z,100502.20
2019-02-07T23:26:55.021Z,100502.59
2019-02-07T23:29:25.644Z,100512.80
2019-02-07T23:32:05.733Z,100512.27
2019-02-07T23:34:36.757Z,100510.16
2019-02-07T23:37:06.716Z,100515.02
2019-02-07T23:39:36.705Z,100509.91
2019-02-07T23:42:06.800Z,100521.92
2019-02-07T23:44:36.760Z,100516.14
2019-02-07T23:47:06.729Z,100514.08
2019-02-07T23:49:36.766Z,100512.44
2019-02-07T23:52:07.048Z,100509.70
2019-02-07T23:54:37.033Z,100528.44
2019-02-07T23:57:07.120Z,100538.08
2019-02-07T23:59:37.177Z,100540.61
